Etusivu
METAR-TAF:

METAR-TAF

Lentoasemat :

Laupheim, Saksa

Leveyspiiri: 48-13N, Pituuspiiri: 009-55E, korkeus merenpinnasta: 538 m

Tämänhetkinen sää

Tämä raportti tehtiin 17 minuuttia sitten, kello 19.20 UTC
Tuuli 2 kn lännestä/lounaasta
Lämpötila 7°C
Kosteus 87%
Ilmanpaine 1000 hPa
Näkyvyys 10 km tai enemmän

METAR: ETHL 031920Z AUTO 25002KT 9999 // ////// 07/05 Q1000 ///

Aika: 20:37 (19:37 UTC)


TAF: puuttuu

Säähavainnot ja -ennusteet yli 4000 lentoasemalta (METAR- ja TAF-raportit).

Käytössä olevat sääasemat on merkitty karttaan keltaisilla ja punaisilla pisteillä.

Aseta hiiri pisteen päälle nähdäksesi sääaseman nimen.

Klikkaa sitten nähdäksesi säähavainnot ja -ennusteet.

Kartan vaihtaminen: klikkaa mustalla rastilla varustettuja vihreitä pisteitä, niin voit zoomata sisään; viivalla varustettua vihreää pistettä, niin voit zoomata ulos tai vihreitä nuolia, niin pääset viereisille kartoille.


METAR-TAF: